Time;durP1;ratioP1;P1;durP2;ratioP2;P2;SDS_P1;SDS_P2;PMS_P1;PMS_P2;Temp;Humidity;BMP_temperature;BMP_pressure;BME280_temperature;BME280_humidity;BME280_pressure;Samples;Min_cycle;Max_cycle;Signal;HPM_P1;HPM_P2
2023/07/21 00:00:15;;;;;;;;;2.50;2.25;;;;;24.09;33.36;100842.91;5059317;28;45343;-63
2023/07/21 00:02:41;;;;;;;;;1.75;1.25;;;;;24.05;33.28;100844.06;5059052;28;46177;-63
2023/07/21 00:05:07;;;;;;;;;1.75;1.75;;;;;24.01;33.44;100840.75;5058706;28;45323;-63
2023/07/21 00:07:35;;;;;;;;;2.75;2.75;;;;;23.99;33.34;100840.00;5059462;28;45252;-63
2023/07/21 00:10:07;;;;;;;;;2.00;2.00;;;;;23.95;33.42;100834.00;5058740;28;45441;-63
2023/07/21 00:12:33;;;;;;;;;2.00;2.00;;;;;23.94;33.27;100829.59;5058887;28;45257;-64
2023/07/21 00:14:58;;;;;;;;;3.00;2.25;;;;;23.92;33.29;100826.13;5079525;28;45152;-63
2023/07/21 00:17:25;;;;;;;;;1.50;1.50;;;;;23.89;33.24;100826.34;5083037;28;45219;-63
2023/07/21 00:19:51;;;;;;;;;2.25;2.25;;;;;23.87;33.44;100822.88;5082714;28;45548;-63
2023/07/21 00:22:16;;;;;;;;;2.75;2.50;;;;;23.85;33.68;100814.09;5082596;28;47149;-64
2023/07/21 00:24:42;;;;;;;;;2.00;2.00;;;;;23.84;33.62;100813.22;5082555;28;45290;-64
2023/07/21 00:27:07;;;;;;;;;2.50;2.50;;;;;23.83;33.71;100807.97;5082637;28;45724;-64
2023/07/21 00:29:32;;;;;;;;;2.25;2.25;;;;;23.81;33.68;100804.53;5062834;28;45394;-64
2023/07/21 00:31:58;;;;;;;;;2.00;2.00;;;;;23.77;33.84;100806.59;5062571;28;46232;-65
2023/07/21 00:34:24;;;;;;;;;2.00;2.00;;;;;23.76;33.78;100803.97;5062158;28;45378;-66
2023/07/21 00:36:53;;;;;;;;;3.75;3.00;;;;;23.72;33.71;100808.69;5062280;28;45479;-66
2023/07/21 00:39:19;;;;;;;;;1.25;1.25;;;;;23.69;33.97;100811.59;5062161;28;45561;-66
2023/07/21 00:41:44;;;;;;;;;1.00;1.00;;;;;23.65;33.57;100813.63;5060342;28;46966;-64
2023/07/21 00:44:10;;;;;;;;;4.75;3.00;;;;;23.66;33.77;100820.72;5062109;28;45257;-64
2023/07/21 00:46:36;;;;;;;;;0.00;0.00;;;;;23.63;33.54;100828.97;5062259;28;45320;-64
2023/07/21 00:49:02;;;;;;;;;0.75;0.75;;;;;23.61;33.65;100836.28;5061976;28;45236;-64
2023/07/21 00:51:28;;;;;;;;;3.00;2.00;;;;;23.60;33.81;100837.22;5062015;28;46107;-64
2023/07/21 00:53:54;;;;;;;;;3.50;2.00;;;;;23.53;33.81;100826.06;5061997;28;45318;-63
2023/07/21 00:56:19;;;;;;;;;1.00;1.00;;;;;23.52;33.70;100813.63;5061554;28;45292;-63
2023/07/21 00:58:44;;;;;;;;;2.50;2.50;;;;;23.50;33.96;100812.00;5061817;28;45560;-63
2023/07/21 01:01:10;;;;;;;;;3.00;3.00;;;;;23.45;33.72;100812.31;5061660;28;46037;-63
2023/07/21 01:03:39;;;;;;;;;1.50;1.50;;;;;23.44;33.95;100815.94;5061661;28;45364;-65
2023/07/21 01:06:07;;;;;;;;;3.75;1.75;;;;;23.43;34.17;100813.38;5061812;28;45329;-65
2023/07/21 01:08:33;;;;;;;;;2.00;2.00;;;;;23.42;34.09;100808.97;5061661;28;45423;-65
2023/07/21 01:11:00;;;;;;;;;2.75;1.75;;;;;23.39;33.82;100818.06;5061304;28;45338;-65
2023/07/21 01:13:26;;;;;;;;;2.00;2.00;;;;;23.38;33.83;100816.34;5068524;28;45442;-66
2023/07/21 01:15:54;;;;;;;;;1.75;1.75;;;;;23.34;33.92;100810.34;5081913;28;45434;-65
2023/07/21 01:18:21;;;;;;;;;1.00;1.00;;;;;23.34;34.06;100818.38;5081743;28;45290;-63
2023/07/21 01:20:48;;;;;;;;;1.00;1.00;;;;;23.32;34.08;100816.75;5081510;28;46321;-63
2023/07/21 01:23:19;;;;;;;;;2.50;2.00;;;;;23.32;34.01;100824.81;5081495;28;45280;-63
2023/07/21 01:25:46;;;;;;;;;2.00;2.00;;;;;23.30;33.97;100818.72;5081525;28;45312;-63
2023/07/21 01:28:13;;;;;;;;;2.00;1.75;;;;;23.27;33.64;100813.53;5071670;28;45814;-63
2023/07/21 01:30:41;;;;;;;;;2.00;2.00;;;;;23.26;34.45;100815.38;5059869;28;47048;-63
2023/07/21 01:33:09;;;;;;;;;2.50;1.50;;;;;23.23;34.17;100814.72;5061381;28;45383;-63
2023/07/21 01:35:37;;;;;;;;;1.00;1.00;;;;;23.23;34.31;100818.22;5061399;28;45197;-63
2023/07/21 01:38:03;;;;;;;;;2.00;2.00;;;;;23.21;34.38;100809.47;5066074;28;45320;-63
2023/07/21 01:40:29;;;;;;;;;2.00;2.00;;;;;23.19;34.12;100812.25;5062436;28;48034;-63
2023/07/21 01:42:56;;;;;;;;;2.00;2.00;;;;;23.15;34.15;100809.81;5081261;28;45323;-63
2023/07/21 01:45:21;;;;;;;;;2.25;2.25;;;;;23.16;34.33;100807.06;5081471;28;45349;-63
2023/07/21 01:47:47;;;;;;;;;2.75;2.75;;;;;23.14;34.61;100806.25;5081361;28;45280;-63
2023/07/21 01:50:16;;;;;;;;;2.50;2.00;;;;;23.13;34.45;100801.91;5081126;28;46181;-63
2023/07/21 01:52:45;;;;;;;;;2.75;2.75;;;;;23.13;34.60;100801.91;5081465;28;45298;-63
2023/07/21 01:55:24;;;;;;;;;4.50;2.00;;;;;23.11;34.72;100798.44;5081143;28;45353;-63
2023/07/21 01:58:03;;;;;;;;;2.50;2.25;;;;;23.09;34.77;100805.72;5080943;28;45231;-63
2023/07/21 02:00:34;;;;;;;;;2.25;2.25;;;;;23.07;34.67;100804.97;5080935;28;45347;-63
2023/07/21 02:03:01;;;;;;;;;1.00;1.00;;;;;23.03;34.70;100796.28;5081269;27;45309;-63
2023/07/21 02:05:27;;;;;;;;;1.50;1.50;;;;;23.01;34.50;100786.63;5079847;27;45450;-63
2023/07/21 02:07:52;;;;;;;;;2.00;1.75;;;;;22.98;34.82;100785.00;5080990;28;45185;-63
2023/07/21 02:10:18;;;;;;;;;0.75;0.75;;;;;22.95;34.69;100777.16;5080813;28;45594;-63
2023/07/21 02:12:43;;;;;;;;;1.75;1.75;;;;;22.93;34.79;100776.41;5072383;28;45285;-63
2023/07/21 02:15:09;;;;;;;;;2.00;2.00;;;;;22.91;34.58;100785.50;5081242;28;45245;-63
2023/07/21 02:17:35;;;;;;;;;2.75;1.00;;;;;22.89;34.59;100780.22;5081089;27;45344;-63
2023/07/21 02:20:07;;;;;;;;;2.00;2.00;;;;;22.86;34.54;100783.13;5080927;28;45252;-63
2023/07/21 02:22:33;;;;;;;;;1.00;1.00;;;;;22.85;34.80;100784.94;5080627;28;45470;-63
2023/07/21 02:24:58;;;;;;;;;2.00;2.00;;;;;22.83;34.53;100783.31;5080578;28;45535;-63
2023/07/21 02:27:23;;;;;;;;;1.00;1.00;;;;;22.81;34.98;100785.25;5078114;28;45405;-63
2023/07/21 02:29:49;;;;;;;;;1.00;1.00;;;;;22.78;34.59;100780.06;5060299;28;56734;-63
2023/07/21 02:32:14;;;;;;;;;3.00;2.00;;;;;22.77;35.15;100779.22;5060334;28;45406;-63
2023/07/21 02:34:41;;;;;;;;;2.00;2.00;;;;;22.71;35.17;100769.75;5060541;28;45299;-63
2023/07/21 02:37:06;;;;;;;;;3.00;1.25;;;;;22.73;35.01;100788.44;5060445;28;45277;-63
2023/07/21 02:39:32;;;;;;;;;2.25;2.00;;;;;22.70;35.35;100792.16;5066296;28;45456;-63
2023/07/21 02:41:59;;;;;;;;;3.00;3.00;;;;;22.69;34.99;100790.44;5059895;28;45467;-63
2023/07/21 02:44:24;;;;;;;;;1.75;1.75;;;;;22.68;35.34;100790.56;5059972;28;45322;-65
2023/07/21 02:46:50;;;;;;;;;4.00;2.00;;;;;22.67;35.01;100789.66;5060131;28;45360;-65
2023/07/21 02:49:16;;;;;;;;;2.50;1.00;;;;;22.63;35.26;100785.47;5060158;28;46501;-63
2023/07/21 02:51:41;;;;;;;;;2.25;2.25;;;;;22.62;35.51;100786.44;5060292;28;45242;-63
2023/07/21 02:54:06;;;;;;;;;2.00;2.00;;;;;22.59;35.80;100783.09;5059858;28;45545;-63
2023/07/21 02:56:34;;;;;;;;;2.00;2.00;;;;;22.58;35.65;100795.63;5059919;28;45302;-65
2023/07/21 02:59:00;;;;;;;;;2.00;2.00;;;;;22.56;35.42;100794.84;5060046;28;46181;-65
2023/07/21 03:01:26;;;;;;;;;2.00;2.00;;;;;22.54;35.67;100794.97;5060150;28;45343;-65
2023/07/21 03:03:54;;;;;;;;;2.00;2.00;;;;;22.52;35.63;100791.50;5060162;28;45517;-65
2023/07/21 03:06:20;;;;;;;;;2.50;2.50;;;;;22.51;35.68;100794.28;5059994;28;45556;-65
2023/07/21 03:08:46;;;;;;;;;2.25;2.25;;;;;22.47;35.63;100782.91;5059811;28;45406;-65
2023/07/21 03:11:13;;;;;;;;;2.00;2.00;;;;;22.46;35.46;100785.69;5059465;28;45292;-65
2023/07/21 03:13:38;;;;;;;;;3.50;2.00;;;;;22.45;35.82;100792.00;5068790;28;45302;-65
2023/07/21 03:16:04;;;;;;;;;2.25;2.25;;;;;22.43;35.46;100789.44;5080042;28;45603;-63
2023/07/21 03:18:29;;;;;;;;;1.00;1.00;;;;;22.40;35.80;100782.47;5078859;28;47123;-63
2023/07/21 03:21:01;;;;;;;;;2.00;2.00;;;;;22.39;35.58;100790.59;5080092;28;45323;-63
2023/07/21 03:23:27;;;;;;;;;1.75;1.75;;;;;22.40;35.66;100794.97;5069054;28;45272;-57
2023/07/21 03:25:52;;;;;;;;;3.00;2.00;;;;;22.38;36.03;100797.75;5075879;28;45460;-57
2023/07/21 03:28:17;;;;;;;;;2.00;2.00;;;;;22.37;35.58;100790.66;5070078;28;45439;-57
2023/07/21 03:30:43;;;;;;;;;2.50;2.00;;;;;22.36;35.80;100786.25;5059633;28;45397;-57
2023/07/21 03:33:08;;;;;;;;;3.00;3.00;;;;;22.36;35.58;100785.38;5059783;28;45289;-57
2023/07/21 03:35:34;;;;;;;;;1.50;1.00;;;;;22.35;36.16;100797.03;5059499;28;45339;-56
2023/07/21 03:37:59;;;;;;;;;2.00;2.00;;;;;22.34;35.79;100788.16;5058286;28;48219;-57
2023/07/21 03:40:24;;;;;;;;;3.00;2.00;;;;;22.33;35.83;100786.44;5059433;28;45307;-57
2023/07/21 03:42:50;;;;;;;;;1.50;1.50;;;;;22.31;35.64;100793.69;5059643;28;45466;-56
2023/07/21 03:45:15;;;;;;;;;2.00;2.00;;;;;;;;5059335;28;45340;-57
2023/07/21 03:47:41;;;;;;;;;4.50;3.00;;;;;22.27;35.84;100796.69;5058299;28;45617;-57
2023/07/21 03:50:08;;;;;;;;;3.00;3.00;;;;;22.27;35.91;100796.69;5060222;28;45403;-57
2023/07/21 03:52:33;;;;;;;;;1.00;1.00;;;;;22.25;36.32;100791.44;5063032;28;45239;-57
2023/07/21 03:54:59;;;;;;;;;3.00;3.00;;;;;22.26;36.18;100794.94;5062392;28;45251;-56
2023/07/21 03:57:24;;;;;;;;;2.00;2.00;;;;;22.23;36.06;100785.31;5062495;28;45305;-57
2023/07/21 03:59:50;;;;;;;;;2.50;1.25;;;;;22.22;36.20;100796.97;5063004;28;45465;-56
2023/07/21 04:02:16;;;;;;;;;0.00;0.00;;;;;22.20;36.25;100796.19;5067084;28;45325;-57
2023/07/21 04:04:42;;;;;;;;;1.50;1.50;;;;;22.20;36.13;100802.41;5062509;28;45449;-57
2023/07/21 04:07:08;;;;;;;;;2.75;1.50;;;;;22.17;35.94;100793.72;5062544;28;46194;-60
2023/07/21 04:09:33;;;;;;;;;3.00;2.00;;;;;22.14;36.31;100797.44;5061181;28;45365;-60
2023/07/21 04:11:59;;;;;;;;;2.00;2.00;;;;;22.15;36.43;100809.88;5062381;28;45536;-60
2023/07/21 04:14:25;;;;;;;;;1.00;1.00;;;;;22.14;36.25;100812.63;5077861;28;45324;-60
2023/07/21 04:16:51;;;;;;;;;1.00;1.00;;;;;22.12;36.53;100807.38;5082627;28;46189;-60
2023/07/21 04:19:16;;;;;;;;;2.00;2.00;;;;;22.12;36.59;100819.91;5082517;27;45433;-60
2023/07/21 04:21:41;;;;;;;;;2.00;1.75;;;;;22.10;36.37;100820.00;5082759;28;45722;-60
2023/07/21 04:24:07;;;;;;;;;1.00;1.00;;;;;22.10;36.40;100816.44;5082787;28;45291;-60
2023/07/21 04:26:32;;;;;;;;;2.00;2.00;;;;;22.07;35.94;100815.69;5082124;28;46155;-60
2023/07/21 04:28:58;;;;;;;;;1.25;1.25;;;;;22.06;35.97;100815.75;5067252;28;45515;-62
2023/07/21 04:31:28;;;;;;;;;2.00;1.00;;;;;22.05;36.77;100817.59;5062527;28;45232;-62
2023/07/21 04:33:53;;;;;;;;;1.00;1.00;;;;;22.05;36.49;100819.44;5062134;28;45337;-60
2023/07/21 04:36:19;;;;;;;;;3.00;3.00;;;;;22.03;36.11;100814.13;5062108;28;45307;-62
2023/07/21 04:38:44;;;;;;;;;2.50;2.00;;;;;22.03;36.26;100810.63;5062197;28;45364;-62
2023/07/21 04:41:12;;;;;;;;;3.00;3.00;;;;;22.01;36.24;100809.84;5060545;28;45345;-62
2023/07/21 04:43:37;;;;;;;;;3.00;3.00;;;;;21.99;36.22;100809.94;5062029;28;45431;-62
2023/07/21 04:46:02;;;;;;;;;3.00;2.00;;;;;21.98;36.91;100818.06;5061939;28;45226;-62
2023/07/21 04:48:28;;;;;;;;;2.75;2.75;;;;;21.99;36.52;100819.78;5060710;28;45301;-60
2023/07/21 04:50:53;;;;;;;;;2.00;2.00;;;;;21.96;36.76;100811.94;5062154;28;49639;-60
2023/07/21 04:53:19;;;;;;;;;2.75;2.75;;;;;21.95;36.53;100813.78;5061835;28;45256;-60
2023/07/21 04:55:45;;;;;;;;;3.50;3.00;;;;;21.92;36.59;100814.81;5061820;28;45174;-60
2023/07/21 04:58:10;;;;;;;;;2.00;2.00;;;;;21.90;36.74;100819.38;5061537;28;45276;-60
2023/07/21 05:00:35;;;;;;;;;5.25;3.00;;;;;21.88;36.89;100820.44;5061819;28;45144;-60
2023/07/21 05:03:01;;;;;;;;;2.50;1.75;;;;;21.83;36.90;100818.03;5060697;28;45236;-60
2023/07/21 05:05:27;;;;;;;;;4.25;3.75;;;;;21.83;37.00;100809.16;5061453;28;48273;-60
2023/07/21 05:07:53;;;;;;;;;3.00;2.25;;;;;21.81;37.41;100811.06;5061577;28;45256;-60
2023/07/21 05:10:18;;;;;;;;;8.50;8.25;;;;;21.74;37.18;100808.75;5061746;28;45624;-62
2023/07/21 05:12:44;;;;;;;;;2.50;2.50;;;;;21.73;37.60;100804.34;5062714;28;45489;-60
2023/07/21 05:15:09;;;;;;;;;3.00;3.00;;;;;21.71;37.60;100794.69;5080572;28;45381;-60
2023/07/21 05:17:34;;;;;;;;;3.00;3.00;;;;;21.65;37.46;100798.63;5081802;27;45265;-61
2023/07/21 05:20:00;;;;;;;;;3.00;3.00;;;;;21.65;37.45;100795.94;5080287;28;45458;-60
2023/07/21 05:22:25;;;;;;;;;4.00;3.00;;;;;21.62;37.80;100793.44;5081565;28;45528;-60
2023/07/21 05:24:51;;;;;;;;;3.00;3.00;;;;;21.61;37.37;100793.53;5081188;28;50081;-60
2023/07/21 05:27:17;;;;;;;;;6.00;4.25;;;;;21.58;37.53;100783.88;5081045;28;45319;-60
2023/07/21 05:29:42;;;;;;;;;3.75;3.00;;;;;21.59;37.29;100785.63;5064193;28;45411;-61
2023/07/21 05:32:08;;;;;;;;;4.00;4.00;;;;;21.55;37.61;100794.75;5061407;28;45441;-61
2023/07/21 05:34:34;;;;;;;;;5.50;3.75;;;;;21.54;37.77;100793.00;5061183;28;45280;-62
2023/07/21 05:37:00;;;;;;;;;4.00;4.00;;;;;21.53;37.97;100801.97;5061074;28;45219;-62
2023/07/21 05:39:29;;;;;;;;;3.75;3.00;;;;;21.48;38.05;100796.91;5061376;28;45464;-62
2023/07/21 05:41:58;;;;;;;;;3.50;3.50;;;;;21.48;38.02;100806.75;5059298;28;45607;-62
2023/07/21 05:44:24;;;;;;;;;2.75;2.75;;;;;21.44;37.88;100811.41;5060943;28;46487;-62
2023/07/21 05:46:49;;;;;;;;;4.00;4.00;;;;;21.42;37.73;100814.19;5060837;28;45271;-62
2023/07/21 05:49:16;;;;;;;;;5.00;4.25;;;;;21.42;37.98;100802.59;5061385;28;45235;-60
2023/07/21 05:51:42;;;;;;;;;3.00;3.00;;;;;21.38;37.86;100798.41;5061123;28;45399;-60
2023/07/21 05:54:08;;;;;;;;;2.50;2.50;;;;;21.35;38.09;100795.91;5061100;28;46043;-60
2023/07/21 05:56:34;;;;;;;;;2.25;2.25;;;;;21.34;38.50;100795.03;5060318;28;45289;-60
2023/07/21 05:58:59;;;;;;;;;2.75;2.75;;;;;21.26;38.16;100787.47;5060825;28;45330;-62
2023/07/21 06:01:26;;;;;;;;;3.00;3.00;;;;;21.34;38.25;100807.56;5060517;28;45403;-62
2023/07/21 06:03:51;;;;;;;;;3.00;3.00;;;;;21.34;38.49;100799.53;5060877;28;45240;-62
2023/07/21 06:06:17;;;;;;;;;2.00;2.00;;;;;21.33;38.34;100806.69;5060623;28;45362;-62
2023/07/21 06:08:43;;;;;;;;;2.00;2.00;;;;;21.32;38.14;100801.44;5059945;28;45834;-62
2023/07/21 06:11:08;;;;;;;;;3.00;3.00;;;;;21.33;38.10;100803.16;5060323;28;45272;-60
2023/07/21 06:13:34;;;;;;;;;4.50;4.00;;;;;21.32;38.57;100793.41;5068460;28;46306;-60
2023/07/21 06:15:59;;;;;;;;;2.00;2.00;;;;;21.32;37.95;100799.63;5080953;28;46399;-60
2023/07/21 06:18:24;;;;;;;;;2.00;1.00;;;;;21.30;37.75;100793.50;5081185;28;45347;-60
2023/07/21 06:20:53;;;;;;;;;3.00;3.00;;;;;21.31;37.96;100797.91;5078993;28;45794;-60
2023/07/21 06:23:19;;;;;;;;;2.50;2.50;;;;;21.29;38.72;100799.81;5080645;28;46202;-60
2023/07/21 06:25:45;;;;;;;;;2.00;2.00;;;;;21.28;38.23;100798.06;5078081;28;45458;-60
2023/07/21 06:28:12;;;;;;;;;2.00;2.00;;;;;21.28;38.66;100803.41;5071345;28;45413;-60
2023/07/21 06:30:38;;;;;;;;;1.00;1.00;;;;;21.27;38.20;100812.41;5060330;28;45247;-60
2023/07/21 06:33:04;;;;;;;;;4.25;3.00;;;;;21.27;38.49;100817.75;5060067;28;46473;-60
2023/07/21 06:35:31;;;;;;;;;3.00;2.25;;;;;21.25;38.26;100819.66;5060071;28;45347;-62
2023/07/21 06:37:56;;;;;;;;;5.00;3.50;;;;;21.25;38.59;100822.31;5060268;28;45354;-62
2023/07/21 06:40:22;;;;;;;;;3.00;3.00;;;;;21.26;38.32;100826.72;5058727;28;45188;-62
2023/07/21 06:42:47;;;;;;;;;2.00;1.75;;;;;21.27;38.95;100825.78;5059637;28;59082;-62
2023/07/21 06:45:13;;;;;;;;;6.00;5.00;;;;;21.22;38.52;100815.34;5059971;28;45456;-63
2023/07/21 06:47:38;;;;;;;;;3.00;3.00;;;;;21.27;38.39;100820.44;5060058;28;45350;-66
2023/07/21 06:50:04;;;;;;;;;3.00;3.00;;;;;21.29;38.75;100818.50;5060009;28;45391;-65
2023/07/21 06:52:30;;;;;;;;;4.00;4.00;;;;;21.29;38.80;100826.53;5059995;28;45484;-65
2023/07/21 06:54:55;;;;;;;;;4.00;2.00;;;;;21.32;38.88;100823.69;5059657;28;46506;-65
2023/07/21 06:57:21;;;;;;;;;3.50;3.50;;;;;21.35;39.26;100828.00;5060075;28;45326;-63
2023/07/21 06:59:46;;;;;;;;;2.25;2.00;;;;;21.34;38.65;100816.41;5059875;28;48843;-65
2023/07/21 07:02:12;;;;;;;;;2.25;1.00;;;;;21.36;38.69;100813.69;5059909;28;45350;-65
2023/07/21 07:04:37;;;;;;;;;2.00;2.00;;;;;21.32;39.08;100813.00;5060114;28;45261;-65
2023/07/21 07:07:04;;;;;;;;;3.00;3.00;;;;;21.40;38.91;100825.91;5059929;28;45216;-65
2023/07/21 07:09:29;;;;;;;;;2.50;2.50;;;;;21.45;38.74;100823.81;5060019;28;45211;-66
2023/07/21 07:11:54;;;;;;;;;5.00;5.00;;;;;21.46;38.88;100816.66;5059413;28;45318;-65
2023/07/21 07:14:19;;;;;;;;;2.25;2.25;;;;;21.50;38.26;100823.56;5074398;28;46807;-65
2023/07/21 07:16:45;;;;;;;;;2.75;2.75;;;;;21.51;38.61;100815.44;5079882;28;51745;-65
2023/07/21 07:19:11;;;;;;;;;3.00;3.00;;;;;21.50;38.54;100813.72;5080002;28;48540;-65
2023/07/21 07:21:36;;;;;;;;;4.50;3.00;;;;;21.51;38.53;100828.81;5080147;28;45395;-66
2023/07/21 07:24:01;;;;;;;;;4.50;3.00;;;;;21.51;38.66;100826.16;5079934;28;45219;-65
2023/07/21 07:26:27;;;;;;;;;4.00;3.75;;;;;21.49;38.75;100827.19;5082472;28;45737;-65
2023/07/21 07:28:53;;;;;;;;;3.00;3.00;;;;;21.49;38.26;100828.03;5069530;27;45548;-65
2023/07/21 07:31:18;;;;;;;;;2.00;2.00;;;;;21.51;38.69;100825.25;5063249;28;45422;-65
2023/07/21 07:33:44;;;;;;;;;3.00;3.00;;;;;21.52;38.50;100827.00;5063238;28;45448;-65
2023/07/21 07:36:11;;;;;;;;;3.50;3.00;;;;;21.51;38.73;100834.16;5062191;28;45363;-66
2023/07/21 07:38:38;;;;;;;;;3.00;3.00;;;;;21.52;38.47;100825.19;5062939;28;45313;-66
2023/07/21 07:41:05;;;;;;;;;2.50;2.50;;;;;21.52;38.67;100830.53;5062874;28;45296;-63
2023/07/21 07:43:32;;;;;;;;;4.00;4.00;;;;;21.52;38.54;100835.00;5062975;28;45288;-63
2023/07/21 07:45:58;;;;;;;;;5.25;4.00;;;;;21.52;38.73;100841.25;5062893;28;45398;-63
2023/07/21 07:48:24;;;;;;;;;2.00;2.00;;;;;21.50;38.17;100839.59;5061468;28;45592;-65
2023/07/21 07:50:51;;;;;;;;;5.75;4.00;;;;;21.50;38.59;100837.78;5061636;28;46057;-65
2023/07/21 07:53:17;;;;;;;;;6.00;3.50;;;;;21.51;38.46;100841.31;5063050;28;45343;-63
2023/07/21 07:55:44;;;;;;;;;4.00;3.00;;;;;21.51;38.21;100846.66;5062899;28;45470;-63
2023/07/21 07:58:09;;;;;;;;;4.00;3.00;;;;;21.51;38.16;100847.53;5061439;28;45191;-63
2023/07/21 08:00:37;;;;;;;;;6.25;5.25;;;;;21.51;38.25;100854.66;5062735;28;45253;-63
2023/07/21 08:03:04;;;;;;;;;3.25;3.00;;;;;21.52;38.18;100859.06;5062933;28;45553;-63
2023/07/21 08:05:29;;;;;;;;;17.75;12.50;;;;;21.52;38.79;100854.59;5061516;28;45352;-64
2023/07/21 08:07:58;;;;;;;;;11.00;9.50;;;;;21.53;38.04;100861.66;5062550;28;45268;-65
2023/07/21 08:10:27;;;;;;;;;1.75;1.50;;;;;21.51;38.63;100860.91;5061397;28;47579;-65
2023/07/21 08:12:53;;;;;;;;;4.00;4.00;;;;;21.54;38.47;100863.38;5064603;28;45266;-65
2023/07/21 08:15:18;;;;;;;;;3.25;3.25;;;;;21.54;38.16;100850.00;5064783;28;45394;-65
2023/07/21 08:17:43;;;;;;;;;3.50;3.50;;;;;21.57;38.80;100859.69;5082840;28;45494;-63
2023/07/21 08:20:10;;;;;;;;;3.50;3.50;;;;;21.57;38.67;100862.38;5082969;28;46448;-65
2023/07/21 08:22:35;;;;;;;;;4.00;3.75;;;;;21.56;38.73;100860.66;5082651;28;45320;-65
2023/07/21 08:25:00;;;;;;;;;5.75;4.00;;;;;21.57;38.71;100867.72;5072278;28;45319;-65
2023/07/21 08:27:27;;;;;;;;;4.00;4.00;;;;;21.58;38.37;100864.09;5075813;28;45427;-63
2023/07/21 08:29:53;;;;;;;;;5.50;4.25;;;;;21.57;38.78;100868.59;5062577;28;47003;-63
2023/07/21 08:32:18;;;;;;;;;2.00;1.00;;;;;21.57;38.80;100867.72;5062361;28;45221;-64
2023/07/21 08:34:44;;;;;;;;;2.75;2.75;;;;;21.54;38.47;100862.53;5062385;28;45244;-63
2023/07/21 08:37:09;;;;;;;;;2.25;1.00;;;;;21.51;38.76;100860.91;5062067;28;45217;-63
2023/07/21 08:39:35;;;;;;;;;4.00;4.00;;;;;21.52;38.61;100870.66;5062165;28;46066;-66
2023/07/21 08:42:07;;;;;;;;;7.00;2.75;;;;;21.52;38.55;100876.00;5060779;28;45392;-65
2023/07/21 08:44:33;;;;;;;;;4.00;4.00;;;;;21.52;38.53;100867.09;5062230;28;45296;-65
2023/07/21 08:46:59;;;;;;;;;4.25;3.00;;;;;21.51;38.41;100876.06;5061005;28;45318;-65
2023/07/21 08:49:24;;;;;;;;;3.75;3.00;;;;;21.53;38.43;100867.00;5062155;28;45555;-65
2023/07/21 08:51:49;;;;;;;;;7.00;7.00;;;;;21.51;38.75;100868.91;5061967;28;45316;-65
2023/07/21 08:54:15;;;;;;;;;9.50;7.50;;;;;21.53;38.51;100869.66;5062186;28;45287;-65
2023/07/21 08:56:40;;;;;;;;;4.25;2.50;;;;;21.51;38.61;100852.00;5061466;28;45154;-65
2023/07/21 08:59:06;;;;;;;;;5.00;3.75;;;;;21.54;38.45;100863.38;5061934;28;46126;-65
2023/07/21 09:01:31;;;;;;;;;6.50;4.50;;;;;21.55;38.36;100859.78;5061685;28;45243;-65
2023/07/21 09:03:57;;;;;;;;;3.75;3.75;;;;;21.59;38.39;100860.47;5062250;28;45284;-65
2023/07/21 09:06:22;;;;;;;;;4.00;4.00;;;;;21.61;38.83;100860.38;5061322;28;54515;-65
2023/07/21 09:08:47;;;;;;;;;5.00;5.00;;;;;21.61;38.91;100861.25;5061856;28;45279;-65
2023/07/21 09:11:14;;;;;;;;;6.25;4.25;;;;;21.68;38.74;100862.59;5059992;28;46471;-63
2023/07/21 09:13:39;;;;;;;;;6.00;5.50;;;;;21.71;38.81;100870.44;5070749;28;45320;-63
2023/07/21 09:16:05;;;;;;;;;3.00;3.00;;;;;21.72;38.34;100866.84;5081843;28;45584;-65
2023/07/21 09:18:39;;;;;;;;;4.00;4.00;;;;;21.75;38.94;100877.34;5081930;27;45327;-65
2023/07/21 09:21:05;;;;;;;;;4.00;4.00;;;;;21.77;38.63;100863.88;5081766;28;45345;-65
2023/07/21 09:23:30;;;;;;;;;4.25;4.00;;;;;21.80;38.90;100874.41;5081712;28;45347;-65
2023/07/21 09:25:58;;;;;;;;;5.25;3.25;;;;;21.81;38.51;100864.53;5081345;28;45553;-65
2023/07/21 09:28:43;;;;;;;;;4.75;4.75;;;;;21.84;38.51;100867.91;5071068;28;45316;-65
2023/07/21 09:31:10;;;;;;;;;5.25;5.00;;;;;21.87;39.23;100873.09;5061215;28;45299;-65
2023/07/21 09:33:38;;;;;;;;;7.00;5.00;;;;;21.90;38.84;100864.00;5061464;28;45315;-65
2023/07/21 09:36:12;;;;;;;;;5.00;5.00;;;;;21.94;38.95;100857.53;5063724;28;45552;-65
2023/07/21 09:38:38;;;;;;;;;5.75;5.00;;;;;21.98;38.73;100856.38;5080036;28;46160;-65
2023/07/21 09:41:06;;;;;;;;;3.00;3.00;;;;;22.03;38.83;100861.44;5081176;28;45353;-66
2023/07/21 09:43:32;;;;;;;;;4.00;4.00;;;;;22.03;38.82;100862.31;5081731;28;45290;-65
2023/07/21 09:46:00;;;;;;;;;7.75;5.25;;;;;22.02;38.70;100849.88;5081272;28;45430;-65
2023/07/21 09:48:27;;;;;;;;;3.50;3.50;;;;;22.11;38.62;100859.16;5080483;28;45373;-65
2023/07/21 09:50:58;;;;;;;;;3.50;3.50;;;;;22.15;38.65;100852.69;5081284;28;45319;-65
2023/07/21 09:53:39;;;;;;;;;4.00;3.25;;;;;22.23;38.53;100860.25;5081466;27;45338;-65
2023/07/21 09:56:06;;;;;;;;;4.00;4.00;;;;;22.28;38.41;100863.50;5080911;28;46789;-65
2023/07/21 09:58:34;;;;;;;;;3.00;3.00;;;;;22.34;38.88;100862.22;5081138;28;45716;-65
2023/07/21 10:01:03;;;;;;;;;4.00;4.00;;;;;22.39;38.69;100863.72;5081163;28;45248;-65
2023/07/21 10:03:30;;;;;;;;;5.00;5.00;;;;;22.46;38.59;100860.66;5079893;27;45462;-65
2023/07/21 10:05:57;;;;;;;;;6.00;6.00;;;;;22.53;38.64;100865.53;5079780;28;45411;-65
2023/07/21 10:08:24;;;;;;;;;5.75;4.25;;;;;22.62;38.44;100866.78;5080899;27;45333;-65
2023/07/21 10:10:49;;;;;;;;;4.75;4.75;;;;;22.70;38.75;100874.31;5080646;28;45320;-65
2023/07/21 10:13:14;;;;;;;;;8.00;6.50;;;;;22.76;38.51;100873.94;5088227;27;45259;-65
2023/07/21 10:15:40;;;;;;;;;8.50;7.50;;;;;22.83;38.67;100867.22;5081035;28;45559;-66
2023/07/21 10:18:11;;;;;;;;;7.75;6.00;;;;;22.92;38.79;100871.13;5080907;28;45961;-66
2023/07/21 10:20:49;;;;;;;;;5.75;4.75;;;;;23.04;38.77;100870.34;5081006;28;45349;-66
2023/07/21 10:23:25;;;;;;;;;4.25;4.25;;;;;23.16;38.56;100866.03;5080926;28;45223;-66
2023/07/21 10:25:56;;;;;;;;;3.75;3.75;;;;;23.35;38.48;100865.69;5080259;28;45429;-66
2023/07/21 10:28:31;;;;;;;;;5.50;5.50;;;;;23.57;38.56;100866.06;5070402;28;46919;-66
2023/07/21 10:31:21;;;;;;;;;4.25;3.50;;;;;23.86;38.84;100880.19;5060205;28;45388;-66
2023/07/21 10:34:05;;;;;;;;;6.00;5.50;;;;;24.11;38.51;100878.53;5060575;28;45311;-66
2023/07/21 10:36:46;;;;;;;;;6.75;5.75;;;;;24.32;38.37;100874.34;5060346;28;45272;-66
2023/07/21 10:39:14;;;;;;;;;3.50;3.50;;;;;24.50;38.59;100879.41;5058811;28;46255;-66
2023/07/21 10:41:39;;;;;;;;;5.25;5.25;;;;;24.66;38.15;100879.22;5059945;28;45400;-66
2023/07/21 10:44:09;;;;;;;;;6.75;6.75;;;;;24.82;37.97;100876.28;5060334;28;45465;-66
2023/07/21 10:46:36;;;;;;;;;6.00;6.00;;;;;24.95;38.28;100874.41;5060219;28;45425;-66
2023/07/21 10:49:01;;;;;;;;;4.50;4.00;;;;;25.11;37.92;100878.66;5059993;28;46130;-66
2023/07/21 10:51:28;;;;;;;;;4.50;4.50;;;;;25.23;37.70;100872.41;5060130;28;45380;-66
2023/07/21 10:53:53;;;;;;;;;8.25;6.75;;;;;25.41;37.41;100878.25;5059010;28;45293;-66
2023/07/21 10:56:18;;;;;;;;;5.50;5.00;;;;;25.58;37.08;100878.81;5059663;28;50778;-66
2023/07/21 10:58:44;;;;;;;;;7.00;5.00;;;;;25.79;36.96;100868.25;5059959;28;45452;-66
2023/07/21 11:01:09;;;;;;;;;5.75;3.50;;;;;26.00;37.56;100868.44;5060174;28;45235;-66
2023/07/21 11:03:34;;;;;;;;;7.00;5.25;;;;;26.23;37.10;100861.28;5060045;28;45505;-66
2023/07/21 11:06:00;;;;;;;;;7.00;6.00;;;;;26.50;36.49;100867.28;5058528;28;45454;-65
2023/07/21 11:08:27;;;;;;;;;6.25;6.25;;;;;26.75;36.80;100876.97;5059814;28;46163;-66
2023/07/21 11:10:53;;;;;;;;;6.75;6.75;;;;;27.08;36.99;100868.00;5059730;28;45257;-66
2023/07/21 11:13:18;;;;;;;;;3.50;3.25;;;;;27.40;36.44;100861.78;5065973;28;45305;-66
2023/07/21 11:15:53;;;;;;;;;7.50;7.25;;;;;27.78;36.91;100861.38;5079517;28;45755;-66
2023/07/21 11:18:19;;;;;;;;;4.25;4.25;;;;;28.16;36.66;100863.53;5080119;28;46085;-65
2023/07/21 11:20:55;;;;;;;;;5.75;4.75;;;;;28.58;36.30;100867.97;5080162;28;46141;-65
2023/07/21 11:23:21;;;;;;;;;6.50;6.50;;;;;29.03;36.06;100864.88;5079951;28;45328;-65